This is the latest recevied weather packets stored in our database for station/object WA7ABU-29. If no packets are shown the sender has not sent any weather packets the latest 10 day(s).
| Time | Temp. | Humidity | Pressure | Rain* | Wind** | Luminosity | Snow |
|---|---|---|---|---|---|---|---|
| 1777205815 | 5.56° C | 65% | 989.5 hPa | 0 mm | - | - | - |
| 1777205567 | 5.56° C | 66% | 989.5 hPa | 0 mm | - | - | - |
| 1777205444 | 5.56° C | 66% | 989.5 hPa | 0 mm | - | - | - |
| 1777205320 | 5.56° C | 66% | 989.2 hPa | 0 mm | - | - | - |
| 1777205073 | 5.56° C | 65% | 989.5 hPa | 0 mm | - | - | - |
| 1777204142 | 5.56° C | 65% | 989.5 hPa | 0 mm | - | - | - |
| 1777202869 | 6.11° C | 63% | 989.5 hPa | 0 mm | - | - | - |
| 1777202622 | 6.11° C | 63% | 989.5 hPa | 0 mm | - | - | - |
| 1777201814 | 6.11° C | 63% | 989.5 hPa | 0 mm | - | - | - |
| 1777200043 | 7.22° C | 60% | 989.5 hPa | 0 mm | - | - | - |
| 1777198523 | 7.78° C | 59% | 989.5 hPa | 0 mm | - | - | - |
| 1777195984 | 9.44° C | 51% | 989.5 hPa | 0 mm | - | - | - |
| 1777195602 | 9.44° C | 49% | 989.5 hPa | 0 mm | - | - | - |
| 1777195075 | 10° C | 49% | 989.5 hPa | 0 mm | - | - | - |
| 1777194951 | 10° C | 49% | 989.5 hPa | 0 mm | - | - | - |
| 1777194266 | 10° C | 48% | 989.5 hPa | 0 mm | - | - | - |
| 1777193559 | 10° C | 47% | 989.8 hPa | 0 mm | - | - | - |
| 1777193177 | 10° C | 48% | 989.8 hPa | 0 mm | - | - | - |
| 1777192774 | 10° C | 47% | 989.8 hPa | 0 mm | - | - | - |
| 1777192650 | 10° C | 47% | 989.8 hPa | 0 mm | - | - | - |
| 1777192402 | 10° C | 47% | 989.8 hPa | 0 mm | - | - | - |
| 1777191880 | 9.44° C | 48% | 989.8 hPa | 0 mm | - | - | - |
| 1777190969 | 10° C | 47% | 989.8 hPa | 0 mm | - | - | - |
| 1777190328 | 10° C | 46% | 989.8 hPa | 0 mm | - | - | - |
| 1777190070 | 10° C | 47% | 989.8 hPa | 0 mm | - | - | - |
* Rain latest hour (hover to see other rain measurements)
** Current wind speed in m/s (hover to see current wind gust speed)